Time;durP1;ratioP1;P1;durP2;ratioP2;P2;SDS_P1;SDS_P2;PMS_P1;PMS_P2;Temp;Humidity;BMP_temperature;BMP_pressure;BME280_temperature;BME280_humidity;BME280_pressure;Samples;Min_cycle;Max_cycle;Signal;HPM_P1;HPM_P2
2021/04/07 00:00:17;;;;;;;4.75;1.90;;;;;;;;;;5014226;28;20076;-49
2021/04/07 00:02:43;;;;;;;5.97;1.73;;;;;;;;;;5006942;28;20033;-47
2021/04/07 00:05:13;;;;;;;6.32;2.33;;;;;;;;;;4991784;28;20048;-46
2021/04/07 00:07:40;;;;;;;6.97;1.55;;;;;;;;;;5014642;28;20389;-45
2021/04/07 00:10:10;;;;;;;7.43;1.92;;;;;;;;;;5014716;28;20037;-47
2021/04/07 00:12:36;;;;;;;6.38;2.13;;;;;;;;;;5014427;28;20040;-45
2021/04/07 00:15:02;;;;;;;6.53;1.92;;;;;;;;;;5014322;28;20033;-46
2021/04/07 00:17:28;;;;;;;7.00;2.25;;;;;;;;;;5014641;28;20112;-50
2021/04/07 00:19:54;;;;;;;5.10;2.05;;;;;;;;;;5014875;28;20045;-45
2021/04/07 00:22:20;;;;;;;6.90;2.58;;;;;;;;;;5004229;28;20057;-46
2021/04/07 00:24:46;;;;;;;4.20;2.00;;;;;;;;;;5011822;28;20402;-48
2021/04/07 00:27:13;;;;;;;6.38;1.98;;;;;;;;;;5013556;28;20038;-46
2021/04/07 00:29:39;;;;;;;5.93;2.13;;;;;;;;;;5014327;28;20474;-46
2021/04/07 00:32:05;;;;;;;6.85;2.63;;;;;;;;;;5013823;28;20052;-46
2021/04/07 00:34:33;;;;;;;11.68;2.38;;;;;;;;;;5012762;28;20363;-45
2021/04/07 00:36:59;;;;;;;6.97;2.08;;;;;;;;;;5012106;28;20029;-46
2021/04/07 00:39:25;;;;;;;6.28;2.15;;;;;;;;;;5014604;28;20018;-45
2021/04/07 00:41:51;;;;;;;6.10;1.95;;;;;;;;;;5013810;28;20088;-47
2021/04/07 00:44:17;;;;;;;9.63;2.40;;;;;;;;;;5013894;28;20371;-46
2021/04/07 00:46:43;;;;;;;7.65;2.05;;;;;;;;;;5013989;28;20026;-47
2021/04/07 00:49:09;;;;;;;6.15;2.53;;;;;;;;;;5014197;28;20095;-46
2021/04/07 00:51:35;;;;;;;10.05;2.00;;;;;;;;;;5014376;28;20030;-48
2021/04/07 00:54:01;;;;;;;6.60;2.63;;;;;;;;;;5013739;28;20117;-49
2021/04/07 00:56:27;;;;;;;6.18;2.20;;;;;;;;;;5013841;28;20136;-46
2021/04/07 00:58:53;;;;;;;9.38;2.50;;;;;;;;;;5013472;28;21376;-45
2021/04/07 01:01:19;;;;;;;9.25;2.50;;;;;;;;;;5013847;28;20530;-47
2021/04/07 01:03:45;;;;;;;10.50;2.45;;;;;;;;;;5000715;28;20041;-46
2021/04/07 01:06:11;;;;;;;5.85;2.28;;;;;;;;;;5009041;28;20061;-46
2021/04/07 01:08:38;;;;;;;7.80;2.35;;;;;;;;;;5012836;28;20033;-47
2021/04/07 01:11:04;;;;;;;9.90;2.45;;;;;;;;;;5013552;28;20113;-46
2021/04/07 01:13:29;;;;;;;7.65;2.30;;;;;;;;;;5013887;28;20109;-46
2021/04/07 01:15:55;;;;;;;9.73;3.10;;;;;;;;;;5013745;28;20679;-46
2021/04/07 01:18:22;;;;;;;7.45;2.55;;;;;;;;;;5010138;28;20116;-46
2021/04/07 01:20:49;;;;;;;6.57;2.40;;;;;;;;;;5009292;28;20275;-46
2021/04/07 01:23:15;;;;;;;10.07;3.10;;;;;;;;;;5010956;28;20363;-48
2021/04/07 01:25:41;;;;;;;10.80;2.40;;;;;;;;;;5013019;28;20058;-46
2021/04/07 01:28:07;;;;;;;5.82;2.40;;;;;;;;;;5012492;28;20043;-45
2021/04/07 01:30:45;;;;;;;11.38;2.88;;;;;;;;;;5013602;28;20030;-46
2021/04/07 01:33:32;;;;;;;7.00;2.25;;;;;;;;;;5013369;28;20065;-46
2021/04/07 01:35:58;;;;;;;6.07;2.38;;;;;;;;;;5008270;28;20065;-49
2021/04/07 01:38:24;;;;;;;14.27;3.22;;;;;;;;;;5012466;28;20040;-48
2021/04/07 01:40:54;;;;;;;4.68;2.30;;;;;;;;;;4994634;28;20022;-47
2021/04/07 01:43:20;;;;;;;10.68;3.40;;;;;;;;;;5008587;28;20031;-46
2021/04/07 01:45:46;;;;;;;11.10;3.00;;;;;;;;;;5006993;28;20511;-46
2021/04/07 01:48:17;;;;;;;5.85;2.45;;;;;;;;;;5013285;28;20041;-47
2021/04/07 01:50:45;;;;;;;15.00;3.40;;;;;;;;;;5013066;28;20029;-49
2021/04/07 01:53:11;;;;;;;10.10;3.08;;;;;;;;;;5011743;28;20045;-46
2021/04/07 01:55:37;;;;;;;8.23;3.00;;;;;;;;;;5004166;28;20026;-46
2021/04/07 01:58:03;;;;;;;7.05;3.30;;;;;;;;;;5012169;28;20025;-46
2021/04/07 02:00:29;;;;;;;7.57;3.38;;;;;;;;;;5012083;28;20378;-46
2021/04/07 02:02:55;;;;;;;7.68;3.20;;;;;;;;;;5012830;28;20045;-47
2021/04/07 02:05:21;;;;;;;7.75;3.20;;;;;;;;;;5011140;28;20042;-47
2021/04/07 02:07:47;;;;;;;8.23;3.10;;;;;;;;;;5012595;28;20029;-47
2021/04/07 02:10:13;;;;;;;8.50;2.75;;;;;;;;;;5005299;28;20033;-49
2021/04/07 02:12:39;;;;;;;10.25;2.72;;;;;;;;;;5011818;28;20037;-49
2021/04/07 02:15:15;;;;;;;5.70;2.47;;;;;;;;;;5012576;28;20088;-47
2021/04/07 02:17:42;;;;;;;9.15;3.40;;;;;;;;;;5003452;28;20022;-47
2021/04/07 02:20:09;;;;;;;12.15;3.95;;;;;;;;;;5012737;28;20030;-47
2021/04/07 02:22:35;;;;;;;6.30;2.58;;;;;;;;;;5012498;28;20022;-48
2021/04/07 02:25:01;;;;;;;4.93;2.67;;;;;;;;;;5009424;28;20518;-45
2021/04/07 02:27:27;;;;;;;14.30;3.10;;;;;;;;;;5012020;28;20513;-51
2021/04/07 02:29:57;;;;;;;8.82;3.58;;;;;;;;;;5012058;28;20033;-46
2021/04/07 02:32:24;;;;;;;7.25;3.17;;;;;;;;;;5012614;28;20033;-46
2021/04/07 02:34:51;;;;;;;8.60;2.65;;;;;;;;;;5012099;28;20053;-46
2021/04/07 02:37:17;;;;;;;9.27;3.10;;;;;;;;;;5010170;28;20030;-47
2021/04/07 02:39:44;;;;;;;5.25;3.00;;;;;;;;;;5011994;28;20117;-46
2021/04/07 02:42:11;;;;;;;10.65;3.50;;;;;;;;;;5011817;28;20367;-48
2021/04/07 02:44:38;;;;;;;9.02;3.60;;;;;;;;;;5004685;28;20163;-47
2021/04/07 02:47:04;;;;;;;6.63;2.95;;;;;;;;;;5012058;28;20030;-47
2021/04/07 02:49:30;;;;;;;7.97;3.45;;;;;;;;;;5012049;28;20053;-47
2021/04/07 02:51:56;;;;;;;7.70;3.05;;;;;;;;;;5011738;28;20045;-51
2021/04/07 02:54:22;;;;;;;6.47;2.78;;;;;;;;;;5011774;28;20455;-46
2021/04/07 02:56:49;;;;;;;9.27;2.70;;;;;;;;;;5011519;28;20049;-50
2021/04/07 02:59:15;;;;;;;12.75;3.60;;;;;;;;;;5011836;28;20057;-48
2021/04/07 03:01:41;;;;;;;7.82;2.92;;;;;;;;;;5010733;28;20046;-46
2021/04/07 03:04:07;;;;;;;7.93;3.20;;;;;;;;;;5011134;28;20347;-46
2021/04/07 03:06:33;;;;;;;10.95;3.30;;;;;;;;;;4998593;28;20387;-49
2021/04/07 03:08:59;;;;;;;11.32;3.20;;;;;;;;;;5011788;28;20026;-48
2021/04/07 03:11:26;;;;;;;10.70;3.70;;;;;;;;;;5012202;28;20505;-48
2021/04/07 03:13:52;;;;;;;10.45;3.80;;;;;;;;;;5007242;28;20022;-49
2021/04/07 03:16:18;;;;;;;5.35;3.08;;;;;;;;;;4988856;28;20489;-46
2021/04/07 03:18:44;;;;;;;7.35;3.22;;;;;;;;;;5012163;28;20513;-52
2021/04/07 03:21:10;;;;;;;10.23;3.58;;;;;;;;;;5012028;28;20153;-49
2021/04/07 03:23:36;;;;;;;9.93;4.18;;;;;;;;;;5011384;28;20438;-46
2021/04/07 03:26:03;;;;;;;9.82;3.85;;;;;;;;;;5000670;28;20110;-46
2021/04/07 03:28:29;;;;;;;8.25;3.47;;;;;;;;;;5004873;28;21755;-46
2021/04/07 03:30:55;;;;;;;6.65;3.30;;;;;;;;;;5008280;28;20108;-46
2021/04/07 03:33:27;;;;;;;9.90;3.30;;;;;;;;;;5011818;28;20029;-46
2021/04/07 03:35:54;;;;;;;7.63;2.55;;;;;;;;;;5010150;28;20454;-46
2021/04/07 03:38:20;;;;;;;9.18;3.45;;;;;;;;;;5009809;28;20037;-46
2021/04/07 03:40:46;;;;;;;5.88;3.50;;;;;;;;;;5009938;28;20045;-47
2021/04/07 03:43:14;;;;;;;9.25;3.45;;;;;;;;;;5009330;28;20105;-46
2021/04/07 03:45:43;;;;;;;9.85;3.58;;;;;;;;;;5003028;28;20025;-46
2021/04/07 03:48:13;;;;;;;15.35;3.70;;;;;;;;;;4989149;28;20037;-47
2021/04/07 03:50:40;;;;;;;7.80;3.80;;;;;;;;;;5004813;28;20065;-49
2021/04/07 03:53:06;;;;;;;9.30;3.88;;;;;;;;;;5007651;28;20539;-48
2021/04/07 03:55:32;;;;;;;9.90;3.53;;;;;;;;;;5007878;28;20034;-50
2021/04/07 03:57:58;;;;;;;8.73;4.00;;;;;;;;;;5007802;28;20041;-47
2021/04/07 04:00:24;;;;;;;9.02;3.75;;;;;;;;;;5006396;28;20034;-52
2021/04/07 04:02:50;;;;;;;10.10;3.67;;;;;;;;;;5001105;28;20022;-47
2021/04/07 04:05:16;;;;;;;10.60;3.17;;;;;;;;;;5006957;28;20030;-46
2021/04/07 04:07:42;;;;;;;9.75;3.90;;;;;;;;;;5013592;28;20034;-46
2021/04/07 04:10:08;;;;;;;12.27;3.85;;;;;;;;;;5010734;28;20080;-46
2021/04/07 04:12:34;;;;;;;10.02;3.15;;;;;;;;;;5014386;28;20038;-46
2021/04/07 04:15:01;;;;;;;7.70;3.42;;;;;;;;;;5014138;28;20059;-46
2021/04/07 04:17:26;;;;;;;8.27;3.50;;;;;;;;;;5013707;28;20053;-47
2021/04/07 04:19:52;;;;;;;18.70;4.05;;;;;;;;;;5014486;28;20026;-46
2021/04/07 04:22:18;;;;;;;7.43;3.00;;;;;;;;;;5014953;28;20463;-46
2021/04/07 04:24:46;;;;;;;12.80;4.32;;;;;;;;;;5008925;28;20053;-46
2021/04/07 04:27:12;;;;;;;10.20;3.58;;;;;;;;;;5011850;28;20397;-46
2021/04/07 04:29:38;;;;;;;7.95;3.85;;;;;;;;;;5014806;28;20034;-51
2021/04/07 04:32:05;;;;;;;9.73;3.50;;;;;;;;;;5008680;28;20080;-48
2021/04/07 04:34:31;;;;;;;8.45;3.50;;;;;;;;;;5011002;28;20034;-46
2021/04/07 04:36:57;;;;;;;11.52;4.07;;;;;;;;;;4993694;28;20018;-48
2021/04/07 04:39:23;;;;;;;7.95;3.50;;;;;;;;;;5007405;28;20088;-48
2021/04/07 04:41:49;;;;;;;10.80;3.53;;;;;;;;;;5014447;28;20026;-46
2021/04/07 04:44:15;;;;;;;14.02;3.72;;;;;;;;;;5014768;28;20026;-46
2021/04/07 04:46:41;;;;;;;10.93;4.13;;;;;;;;;;5013846;28;20030;-46
2021/04/07 04:49:07;;;;;;;13.65;3.85;;;;;;;;;;5014589;28;20419;-46
2021/04/07 04:51:33;;;;;;;10.50;4.00;;;;;;;;;;5014075;28;20033;-46
2021/04/07 04:53:59;;;;;;;10.70;3.40;;;;;;;;;;5014329;28;20021;-46
2021/04/07 04:56:25;;;;;;;10.25;3.22;;;;;;;;;;5013392;28;20034;-46
2021/04/07 04:58:51;;;;;;;6.32;2.97;;;;;;;;;;5013567;28;20364;-48
2021/04/07 05:01:17;;;;;;;8.88;3.05;;;;;;;;;;5011753;28;20029;-48
2021/04/07 05:03:43;;;;;;;15.50;4.18;;;;;;;;;;5013122;28;20092;-49
2021/04/07 05:06:09;;;;;;;15.13;3.17;;;;;;;;;;5009548;28;20045;-46
2021/04/07 05:08:35;;;;;;;13.95;3.47;;;;;;;;;;5011057;28;20044;-46
2021/04/07 05:11:01;;;;;;;12.82;3.85;;;;;;;;;;5014071;28;20769;-46
2021/04/07 05:13:27;;;;;;;6.03;3.17;;;;;;;;;;5014205;28;20045;-46
2021/04/07 05:15:53;;;;;;;7.25;3.50;;;;;;;;;;4991209;28;20026;-47
2021/04/07 05:18:21;;;;;;;14.27;4.30;;;;;;;;;;5013740;28;20084;-46
2021/04/07 05:20:47;;;;;;;9.40;3.47;;;;;;;;;;5012956;28;20049;-46
2021/04/07 05:23:13;;;;;;;9.38;3.17;;;;;;;;;;5013272;28;20034;-46
2021/04/07 05:25:39;;;;;;;12.38;4.03;;;;;;;;;;5007933;28;20065;-46
2021/04/07 05:28:08;;;;;;;10.23;3.58;;;;;;;;;;5007219;28;20418;-48
2021/04/07 05:33:21;;;;;;;10.57;3.83;;;;;;;;;;5013982;28;20073;-49
2021/04/07 05:35:47;;;;;;;15.77;3.55;;;;;;;;;;5008228;28;20061;-46
2021/04/07 05:38:13;;;;;;;11.75;3.65;;;;;;;;;;5013388;28;20505;-46
2021/04/07 05:40:40;;;;;;;9.75;3.75;;;;;;;;;;5013185;28;20478;-52
2021/04/07 05:43:06;;;;;;;10.27;3.53;;;;;;;;;;5013258;28;20481;-47
2021/04/07 05:45:32;;;;;;;9.10;3.10;;;;;;;;;;5008315;28;20030;-48
2021/04/07 05:47:58;;;;;;;14.02;3.75;;;;;;;;;;5013214;28;20041;-46
2021/04/07 05:50:24;;;;;;;17.58;3.60;;;;;;;;;;5013289;28;20084;-49
2021/04/07 05:52:50;;;;;;;10.20;3.58;;;;;;;;;;5005342;28;20109;-46
2021/04/07 05:55:17;;;;;;;13.43;3.90;;;;;;;;;;5012721;28;20033;-48
2021/04/07 05:57:43;;;;;;;13.27;4.28;;;;;;;;;;5012660;28;20076;-47
2021/04/07 06:00:09;;;;;;;15.75;3.67;;;;;;;;;;5009283;28;20022;-48
2021/04/07 06:02:35;;;;;;;12.98;4.18;;;;;;;;;;5003281;28;20026;-47
2021/04/07 06:05:01;;;;;;;10.00;3.22;;;;;;;;;;5005576;28;20402;-47
2021/04/07 06:07:27;;;;;;;11.65;4.38;;;;;;;;;;5012228;28;20040;-48
2021/04/07 06:09:53;;;;;;;11.80;3.85;;;;;;;;;;5002472;28;20037;-47
2021/04/07 06:12:19;;;;;;;17.35;3.53;;;;;;;;;;5008065;28;20419;-46
2021/04/07 06:14:45;;;;;;;12.25;2.97;;;;;;;;;;5012573;28;20160;-46
2021/04/07 06:17:11;;;;;;;9.65;3.15;;;;;;;;;;5012496;28;20101;-50
2021/04/07 06:19:37;;;;;;;15.05;3.20;;;;;;;;;;5010218;28;20025;-48
2021/04/07 06:22:03;;;;;;;11.50;3.90;;;;;;;;;;5012511;28;20456;-46
2021/04/07 06:24:29;;;;;;;18.13;3.70;;;;;;;;;;5007993;28;20046;-47
2021/04/07 06:26:55;;;;;;;11.15;2.95;;;;;;;;;;5007599;28;20084;-50
2021/04/07 06:29:21;;;;;;;10.82;3.65;;;;;;;;;;5011916;28;20032;-46
2021/04/07 06:31:47;;;;;;;11.75;3.67;;;;;;;;;;5008898;28;20041;-46
2021/04/07 06:34:13;;;;;;;17.15;3.40;;;;;;;;;;5012763;28;20030;-46
2021/04/07 06:36:39;;;;;;;15.23;3.90;;;;;;;;;;5011671;28;20029;-48
2021/04/07 06:39:05;;;;;;;8.68;3.30;;;;;;;;;;5012289;28;20686;-47
2021/04/07 06:41:31;;;;;;;8.50;2.80;;;;;;;;;;5012115;28;20034;-46
2021/04/07 06:43:57;;;;;;;21.88;3.80;;;;;;;;;;5012764;28;20026;-46
2021/04/07 06:46:24;;;;;;;10.55;3.47;;;;;;;;;;5011530;28;20121;-48
2021/04/07 06:48:53;;;;;;;13.45;3.33;;;;;;;;;;5011704;28;20030;-47
2021/04/07 06:51:21;;;;;;;9.88;4.13;;;;;;;;;;5009956;28;20525;-47
2021/04/07 06:53:51;;;;;;;8.73;3.30;;;;;;;;;;5001318;28;20041;-47
2021/04/07 06:56:17;;;;;;;17.42;3.38;;;;;;;;;;5012303;28;20108;-48
2021/04/07 06:58:44;;;;;;;13.82;3.42;;;;;;;;;;5010340;28;20085;-51
2021/04/07 07:01:10;;;;;;;9.23;3.22;;;;;;;;;;5011889;28;20396;-48
2021/04/07 07:03:36;;;;;;;18.88;3.58;;;;;;;;;;5012398;28;20125;-47
2021/04/07 07:06:02;;;;;;;9.10;3.45;;;;;;;;;;5011609;28;20038;-46
2021/04/07 07:08:30;;;;;;;13.70;3.95;;;;;;;;;;5011695;28;20125;-46
2021/04/07 07:10:56;;;;;;;8.25;3.05;;;;;;;;;;5011456;28;20048;-47
2021/04/07 07:13:27;;;;;;;11.18;3.33;;;;;;;;;;5011137;28;20026;-47
2021/04/07 07:15:54;;;;;;;11.85;3.28;;;;;;;;;;5010377;28;20113;-47
2021/04/07 07:18:24;;;;;;;12.25;3.45;;;;;;;;;;5012234;28;20505;-51
2021/04/07 07:20:50;;;;;;;17.10;3.60;;;;;;;;;;5010160;28;20367;-49
2021/04/07 07:23:25;;;;;;;7.85;3.17;;;;;;;;;;5007133;28;20022;-47
2021/04/07 07:25:57;;;;;;;11.65;3.40;;;;;;;;;;5010911;28;20057;-46
2021/04/07 07:28:24;;;;;;;10.00;3.33;;;;;;;;;;5011593;28;20109;-46
2021/04/07 07:30:50;;;;;;;9.75;3.55;;;;;;;;;;5011790;28;20030;-47
2021/04/07 07:33:20;;;;;;;15.98;2.97;;;;;;;;;;5011887;28;20080;-50
2021/04/07 07:35:48;;;;;;;15.75;3.30;;;;;;;;;;5011205;28;20378;-50
2021/04/07 07:38:20;;;;;;;11.30;3.47;;;;;;;;;;5011129;28;20037;-46
2021/04/07 07:40:47;;;;;;;12.63;3.40;;;;;;;;;;5014489;28;20029;-49
2021/04/07 07:43:13;;;;;;;14.48;3.63;;;;;;;;;;5014122;28;20107;-48
2021/04/07 07:45:40;;;;;;;11.30;2.90;;;;;;;;;;5011507;28;20113;-46
2021/04/07 07:48:13;;;;;;;13.05;3.03;;;;;;;;;;5015568;28;20029;-46
2021/04/07 07:50:40;;;;;;;13.23;3.33;;;;;;;;;;5015288;28;20060;-47
2021/04/07 07:53:13;;;;;;;12.90;2.85;;;;;;;;;;5015407;28;20041;-48
2021/04/07 07:55:39;;;;;;;14.80;3.17;;;;;;;;;;5012809;28;20030;-46
2021/04/07 07:58:06;;;;;;;13.23;2.83;;;;;;;;;;5012852;28;20285;-46
2021/04/07 08:00:32;;;;;;;13.05;2.70;;;;;;;;;;5013918;28;20022;-46
2021/04/07 08:03:11;;;;;;;19.60;2.55;;;;;;;;;;5004376;28;20451;-46
2021/04/07 08:05:37;;;;;;;10.30;2.38;;;;;;;;;;5014485;28;20033;-46
2021/04/07 08:08:04;;;;;;;12.18;2.85;;;;;;;;;;5015005;28;20132;-47
2021/04/07 08:10:31;;;;;;;11.48;2.83;;;;;;;;;;5014920;28;20030;-46
2021/04/07 08:13:00;;;;;;;14.88;2.88;;;;;;;;;;4995983;28;20048;-49
2021/04/07 08:15:27;;;;;;;9.75;2.53;;;;;;;;;;5009842;28;20037;-49
2021/04/07 08:17:53;;;;;;;12.82;2.83;;;;;;;;;;5015136;28;20018;-47
2021/04/07 08:20:19;;;;;;;10.98;2.75;;;;;;;;;;5013987;28;20030;-50
2021/04/07 08:22:46;;;;;;;8.82;2.42;;;;;;;;;;5014182;28;20115;-46
2021/04/07 08:25:14;;;;;;;13.38;2.90;;;;;;;;;;5006104;28;20066;-47
2021/04/07 08:27:40;;;;;;;11.10;2.63;;;;;;;;;;5010690;28;20394;-48
2021/04/07 08:30:07;;;;;;;12.63;3.08;;;;;;;;;;5009200;28;20030;-46
2021/04/07 08:32:33;;;;;;;11.70;2.88;;;;;;;;;;5008870;28;20391;-47
2021/04/07 08:34:59;;;;;;;11.45;3.33;;;;;;;;;;5012260;28;20344;-46
2021/04/07 08:37:29;;;;;;;15.68;2.83;;;;;;;;;;5011056;28;20080;-47
2021/04/07 08:39:55;;;;;;;13.82;2.50;;;;;;;;;;5008084;28;20026;-47
2021/04/07 08:42:22;;;;;;;9.85;2.60;;;;;;;;;;5008047;28;20045;-47
2021/04/07 08:44:50;;;;;;;13.80;3.40;;;;;;;;;;5009124;28;20109;-47
2021/04/07 08:47:29;;;;;;;12.93;2.78;;;;;;;;;;5010111;28;20030;-48
2021/04/07 08:50:06;;;;;;;11.10;2.65;;;;;;;;;;5009564;28;20026;-47
2021/04/07 08:52:32;;;;;;;8.82;2.65;;;;;;;;;;5013609;28;20110;-47
2021/04/07 08:55:01;;;;;;;10.57;2.70;;;;;;;;;;5013003;28;20037;-51
2021/04/07 08:57:27;;;;;;;10.40;3.10;;;;;;;;;;5007054;28;20033;-49
2021/04/07 08:59:54;;;;;;;9.88;2.20;;;;;;;;;;5013064;28;20462;-49
2021/04/07 09:02:20;;;;;;;10.02;2.22;;;;;;;;;;5013465;28;20036;-47
2021/04/07 09:05:06;;;;;;;5.40;1.58;;;;;;;;;;5013721;28;20034;-47
2021/04/07 09:07:42;;;;;;;5.10;2.08;;;;;;;;;;5013880;28;20460;-48
2021/04/07 09:10:20;;;;;;;6.53;2.25;;;;;;;;;;5012882;28;20022;-49
2021/04/07 09:12:47;;;;;;;16.58;2.78;;;;;;;;;;5013722;28;20029;-48
2021/04/07 09:15:22;;;;;;;12.25;2.60;;;;;;;;;;5013721;28;20026;-47
2021/04/07 09:17:58;;;;;;;7.10;2.17;;;;;;;;;;5011781;28;20034;-46
2021/04/07 09:20:41;;;;;;;9.98;2.35;;;;;;;;;;5013420;28;20030;-47
2021/04/07 09:23:13;;;;;;;9.43;3.27;;;;;;;;;;5013687;28;20041;-48
2021/04/07 09:25:44;;;;;;;13.25;2.65;;;;;;;;;;5009573;28;20132;-49
2021/04/07 09:28:10;;;;;;;10.50;2.78;;;;;;;;;;5013017;28;20033;-51
2021/04/07 09:30:47;;;;;;;9.88;2.75;;;;;;;;;;5012664;28;20022;-50
2021/04/07 09:33:18;;;;;;;7.97;2.33;;;;;;;;;;5013319;28;20061;-46
2021/04/07 09:35:58;;;;;;;10.50;2.38;;;;;;;;;;5009399;28;20512;-49
2021/04/07 09:38:24;;;;;;;9.20;2.55;;;;;;;;;;5002176;28;20425;-47
2021/04/07 09:41:00;;;;;;;8.32;2.45;;;;;;;;;;5012844;28;20037;-48
2021/04/07 09:43:27;;;;;;;11.32;2.72;;;;;;;;;;5012186;28;20073;-48
2021/04/07 09:45:53;;;;;;;6.57;2.55;;;;;;;;;;5012092;28;20026;-48
2021/04/07 09:48:19;;;;;;;5.60;2.08;;;;;;;;;;5010380;28;20068;-47
2021/04/07 09:50:45;;;;;;;11.32;2.20;;;;;;;;;;5012686;28;20080;-47
2021/04/07 09:53:11;;;;;;;7.32;1.98;;;;;;;;;;5013223;28;20040;-50
2021/04/07 09:55:37;;;;;;;6.10;1.90;;;;;;;;;;5012667;28;20068;-47
2021/04/07 09:58:04;;;;;;;7.70;2.58;;;;;;;;;;5012354;28;20105;-49
2021/04/07 10:00:36;;;;;;;7.30;2.17;;;;;;;;;;5013252;28;20026;-47
2021/04/07 10:03:02;;;;;;;8.60;2.38;;;;;;;;;;5012203;28;20065;-50
2021/04/07 10:05:30;;;;;;;6.78;2.20;;;;;;;;;;5012636;28;20033;-49
2021/04/07 10:08:11;;;;;;;8.73;2.17;;;;;;;;;;5012971;28;20033;-48
2021/04/07 10:10:37;;;;;;;8.30;2.40;;;;;;;;;;5000477;28;20033;-48
2021/04/07 10:13:03;;;;;;;5.43;1.42;;;;;;;;;;5012222;28;20104;-47
2021/04/07 10:15:29;;;;;;;6.40;2.10;;;;;;;;;;5012391;28;20032;-50
2021/04/07 10:17:55;;;;;;;10.68;2.42;;;;;;;;;;5012263;28;20493;-48
2021/04/07 10:20:27;;;;;;;6.60;2.05;;;;;;;;;;5012064;28;20022;-47
2021/04/07 10:22:55;;;;;;;11.80;2.47;;;;;;;;;;5011900;28;20028;-51
2021/04/07 10:25:24;;;;;;;6.45;1.90;;;;;;;;;;5008967;28;20058;-49
2021/04/07 10:27:50;;;;;;;6.50;2.00;;;;;;;;;;5008272;28;20133;-47
2021/04/07 10:30:19;;;;;;;7.43;1.90;;;;;;;;;;5012328;28;20085;-50
2021/04/07 10:32:49;;;;;;;7.85;2.17;;;;;;;;;;5012551;28;20060;-49
2021/04/07 10:35:33;;;;;;;6.63;2.30;;;;;;;;;;5003136;28;20030;-48
2021/04/07 10:38:07;;;;;;;5.88;1.73;;;;;;;;;;5012542;28;20038;-47
2021/04/07 10:40:34;;;;;;;5.05;2.13;;;;;;;;;;5012482;28;20033;-48
2021/04/07 10:43:13;;;;;;;6.10;1.55;;;;;;;;;;5012250;28;20037;-49
2021/04/07 10:45:39;;;;;;;6.72;1.40;;;;;;;;;;5012242;28;20389;-49
2021/04/07 10:48:05;;;;;;;2.88;1.30;;;;;;;;;;5012391;28;20030;-47
2021/04/07 10:50:32;;;;;;;5.50;1.50;;;;;;;;;;5009253;28;20048;-48
2021/04/07 10:52:59;;;;;;;4.60;1.85;;;;;;;;;;5012012;28;20036;-50
2021/04/07 10:55:26;;;;;;;6.35;1.88;;;;;;;;;;5011064;28;20336;-48
2021/04/07 10:57:55;;;;;;;6.05;2.08;;;;;;;;;;5011705;28;20104;-51
2021/04/07 11:00:29;;;;;;;11.30;1.58;;;;;;;;;;5012482;28;20026;-48
2021/04/07 11:02:56;;;;;;;5.40;1.98;;;;;;;;;;5011640;28;20108;-48
2021/04/07 11:05:23;;;;;;;9.10;1.73;;;;;;;;;;5004435;28;20038;-48
2021/04/07 11:08:00;;;;;;;7.28;1.90;;;;;;;;;;5008567;28;20040;-48
2021/04/07 11:10:26;;;;;;;7.97;1.85;;;;;;;;;;5007273;28;20562;-48
2021/04/07 11:12:52;;;;;;;7.68;1.60;;;;;;;;;;5006854;28;20109;-47
2021/04/07 11:15:18;;;;;;;9.23;1.58;;;;;;;;;;5012540;28;20057;-47
2021/04/07 11:17:52;;;;;;;10.90;2.10;;;;;;;;;;5014852;28;20033;-47
2021/04/07 11:20:18;;;;;;;7.35;1.67;;;;;;;;;;5010110;28;20030;-47
2021/04/07 11:22:44;;;;;;;6.05;1.90;;;;;;;;;;5012215;28;20036;-47
2021/04/07 11:25:10;;;;;;;4.90;1.50;;;;;;;;;;5012680;28;20058;-47
2021/04/07 11:27:36;;;;;;;8.02;1.90;;;;;;;;;;5012130;28;20026;-50
2021/04/07 11:30:03;;;;;;;4.70;1.90;;;;;;;;;;5015769;28;20109;-49
2021/04/07 11:32:31;;;;;;;7.78;1.75;;;;;;;;;;5015278;28;20030;-48
2021/04/07 11:40:09;;;;;;;6.32;1.70;;;;;;;;;;5008944;28;20034;-47
2021/04/07 11:45:11;;;;;;;5.75;1.40;;;;;;;;;;5011840;28;20490;-48
2021/04/07 11:47:37;;;;;;;6.03;1.38;;;;;;;;;;5012163;28;20030;-49
2021/04/07 11:50:03;;;;;;;2.53;1.10;;;;;;;;;;5015288;28;20542;-49
2021/04/07 11:52:31;;;;;;;4.50;1.20;;;;;;;;;;5015517;28;20026;-48
2021/04/07 11:54:57;;;;;;;6.78;1.52;;;;;;;;;;5014742;28;20390;-48
2021/04/07 11:57:23;;;;;;;4.03;1.10;;;;;;;;;;5013938;28;20037;-47
2021/04/07 11:59:53;;;;;;;3.53;1.00;;;;;;;;;;5014611;28;20105;-47
2021/04/07 12:02:19;;;;;;;2.10;1.23;;;;;;;;;;5014663;28;20037;-47
2021/04/07 12:04:46;;;;;;;4.43;0.95;;;;;;;;;;5014967;28;20041;-47
2021/04/07 12:07:12;;;;;;;3.35;1.15;;;;;;;;;;5013342;28;20022;-47
2021/04/07 12:09:47;;;;;;;4.13;1.30;;;;;;;;;;5014683;28;20034;-47
2021/04/07 12:12:13;;;;;;;4.85;1.13;;;;;;;;;;5014761;28;20069;-49
2021/04/07 12:14:39;;;;;;;4.38;1.05;;;;;;;;;;5014608;28;20463;-49
2021/04/07 12:17:05;;;;;;;4.45;1.20;;;;;;;;;;5014809;28;20057;-47
2021/04/07 12:19:31;;;;;;;8.52;1.27;;;;;;;;;;5014770;28;20022;-49
2021/04/07 12:21:58;;;;;;;2.15;1.05;;;;;;;;;;5013925;28;20092;-49
2021/04/07 12:24:24;;;;;;;6.55;1.50;;;;;;;;;;5010965;28;20081;-47
2021/04/07 12:26:50;;;;;;;4.78;1.70;;;;;;;;;;5006367;28;20026;-47
2021/04/07 12:29:16;;;;;;;7.13;1.52;;;;;;;;;;5009078;28;20429;-47
2021/04/07 12:31:42;;;;;;;6.13;1.65;;;;;;;;;;5014431;28;20034;-47
2021/04/07 12:34:08;;;;;;;3.72;1.90;;;;;;;;;;5013968;28;20768;-48
2021/04/07 12:36:34;;;;;;;4.22;1.20;;;;;;;;;;5012679;28;20026;-48
2021/04/07 12:39:01;;;;;;;3.65;1.63;;;;;;;;;;5012802;28;20037;-47
2021/04/07 12:44:12;;;;;;;6.88;1.55;;;;;;;;;;5013959;28;20132;-49
2021/04/07 12:46:38;;;;;;;4.78;1.52;;;;;;;;;;5013148;28;20478;-48
2021/04/07 12:49:04;;;;;;;3.15;1.30;;;;;;;;;;5013977;28;20041;-47
2021/04/07 12:51:30;;;;;;;9.50;1.48;;;;;;;;;;5014239;28;20041;-47
2021/04/07 12:53:57;;;;;;;4.35;1.50;;;;;;;;;;5013056;28;20111;-47
2021/04/07 12:56:24;;;;;;;3.92;1.20;;;;;;;;;;5013300;28;20116;-47
2021/04/07 12:58:50;;;;;;;5.22;1.13;;;;;;;;;;5012761;28;20041;-49
2021/04/07 13:01:16;;;;;;;3.58;1.33;;;;;;;;;;5014382;28;20025;-47
2021/04/07 13:03:43;;;;;;;10.13;1.60;;;;;;;;;;5014188;28;20037;-49
2021/04/07 13:06:09;;;;;;;3.95;1.40;;;;;;;;;;5013939;28;20026;-49
2021/04/07 13:08:35;;;;;;;2.90;1.40;;;;;;;;;;5013465;28;20040;-47
2021/04/07 13:11:01;;;;;;;3.35;1.23;;;;;;;;;;5013824;28;20034;-47
2021/04/07 13:13:27;;;;;;;2.63;1.15;;;;;;;;;;5013318;28;20083;-48
2021/04/07 13:15:53;;;;;;;3.00;1.20;;;;;;;;;;5012996;28;20033;-49
2021/04/07 13:18:22;;;;;;;4.50;1.20;;;;;;;;;;5013929;28;20057;-47
2021/04/07 13:20:48;;;;;;;2.08;1.25;;;;;;;;;;5013429;28;20122;-48
2021/04/07 13:23:14;;;;;;;3.67;1.27;;;;;;;;;;5012680;28;20049;-47
2021/04/07 13:25:40;;;;;;;2.90;1.02;;;;;;;;;;5012428;28;20072;-49
2021/04/07 13:28:06;;;;;;;6.00;1.40;;;;;;;;;;5013208;28;20479;-47
2021/04/07 13:30:34;;;;;;;6.60;1.38;;;;;;;;;;5012758;28;20029;-49
2021/04/07 13:35:57;;;;;;;4.55;1.20;;;;;;;;;;4987049;28;20038;-48
2021/04/07 13:43:52;;;;;;;2.50;1.45;;;;;;;;;;5013527;28;20430;-51
2021/04/07 13:46:18;;;;;;;5.63;1.85;;;;;;;;;;5012624;28;20037;-50
2021/04/07 13:48:45;;;;;;;4.43;1.75;;;;;;;;;;5012802;28;20034;-53
2021/04/07 13:51:12;;;;;;;5.93;2.03;;;;;;;;;;5012844;28;20022;-50
2021/04/07 13:53:39;;;;;;;3.78;1.98;;;;;;;;;;5012311;28;20026;-47
2021/04/07 13:56:12;;;;;;;3.80;2.42;;;;;;;;;;5012529;28;20045;-48
2021/04/07 13:58:38;;;;;;;5.78;2.30;;;;;;;;;;5012244;28;20022;-49
2021/04/07 14:01:05;;;;;;;5.70;2.80;;;;;;;;;;5011896;28;20117;-48
2021/04/07 14:03:31;;;;;;;3.33;2.60;;;;;;;;;;5011536;28;20030;-48
2021/04/07 14:05:57;;;;;;;7.22;3.10;;;;;;;;;;5012000;28;20033;-47
2021/04/07 14:08:24;;;;;;;7.68;2.90;;;;;;;;;;5011303;28;20064;-47
2021/04/07 14:10:51;;;;;;;3.85;2.95;;;;;;;;;;5011431;28;20050;-50
2021/04/07 14:13:17;;;;;;;4.50;2.97;;;;;;;;;;5012560;28;20045;-47
2021/04/07 14:15:43;;;;;;;5.85;3.42;;;;;;;;;;5012351;28;20033;-47
2021/04/07 14:18:10;;;;;;;6.85;3.58;;;;;;;;;;5012085;28;20121;-51
2021/04/07 14:20:37;;;;;;;5.85;3.70;;;;;;;;;;5012161;28;20030;-49
2021/04/07 14:23:03;;;;;;;6.45;3.53;;;;;;;;;;5012139;28;20018;-48
2021/04/07 14:25:30;;;;;;;7.53;3.60;;;;;;;;;;5000569;28;20125;-47
2021/04/07 14:28:00;;;;;;;8.00;3.28;;;;;;;;;;5010805;28;20026;-47
2021/04/07 14:30:26;;;;;;;7.20;3.58;;;;;;;;;;5012490;28;20038;-47
2021/04/07 14:32:52;;;;;;;6.03;3.60;;;;;;;;;;5012714;28;20125;-47
2021/04/07 14:35:19;;;;;;;5.82;3.60;;;;;;;;;;5011621;28;20113;-47
2021/04/07 14:37:45;;;;;;;8.70;3.85;;;;;;;;;;5000370;28;20026;-47
2021/04/07 14:40:11;;;;;;;8.55;4.35;;;;;;;;;;5011058;28;20030;-47
2021/04/07 14:42:37;;;;;;;6.68;3.72;;;;;;;;;;5011444;28;20034;-47
2021/04/07 14:45:04;;;;;;;6.88;3.50;;;;;;;;;;5012053;28;20105;-48
2021/04/07 14:47:30;;;;;;;4.55;3.40;;;;;;;;;;5011442;28;20069;-47
2021/04/07 14:49:57;;;;;;;7.35;3.80;;;;;;;;;;5005697;28;20568;-47
2021/04/07 14:52:23;;;;;;;6.07;4.20;;;;;;;;;;5012134;28;20022;-50
2021/04/07 14:54:56;;;;;;;5.88;3.63;;;;;;;;;;5005994;28;20083;-49
2021/04/07 14:57:22;;;;;;;6.13;3.85;;;;;;;;;;5006334;28;20124;-51
2021/04/07 14:59:48;;;;;;;6.13;4.28;;;;;;;;;;5010953;28;20041;-50